Time;durP1;ratioP1;P1;durP2;ratioP2;P2;SDS_P1;SDS_P2;PMS_P1;PMS_P2;Temp;Humidity;BMP_temperature;BMP_pressure;BME280_temperature;BME280_humidity;BME280_pressure;Samples;Min_cycle;Max_cycle;Signal;HPM_P1;HPM_P2
2022/08/15 00:01:28;;;;;;;11.18;8.93;;;25.00;99.90;;;;;;5030761;28;20038;-79
2022/08/15 00:03:58;;;;;;;10.60;8.52;;;25.00;99.90;;;;;;5025474;28;20501;-78
2022/08/15 00:06:31;;;;;;;11.70;9.43;;;25.00;99.90;;;;;;5026271;28;20046;-78
2022/08/15 00:08:59;;;;;;;10.40;9.07;;;25.00;99.90;;;;;;5028911;28;20041;-79
2022/08/15 00:11:32;;;;;;;9.65;8.73;;;25.00;99.90;;;;;;5031335;28;20099;-78
2022/08/15 00:14:11;;;;;;;9.65;8.75;;;25.00;99.90;;;;;;5028824;28;20086;-78
2022/08/15 00:16:39;;;;;;;11.98;9.68;;;24.90;99.90;;;;;;5027106;28;20057;-78
2022/08/15 00:19:17;;;;;;;9.77;8.82;;;24.90;99.90;;;;;;5026432;28;20473;-79
2022/08/15 00:21:50;;;;;;;8.88;8.00;;;24.90;99.90;;;;;;5023738;28;20057;-79
2022/08/15 00:24:20;;;;;;;10.32;9.05;;;24.90;99.90;;;;;;5031544;28;20054;-78
2022/08/15 00:26:48;;;;;;;9.43;8.40;;;24.90;99.90;;;;;;5032736;28;20046;-79
2022/08/15 00:29:18;;;;;;;10.90;9.15;;;24.80;99.90;;;;;;5027828;28;20044;-78
2022/08/15 00:31:44;;;;;;;10.43;9.35;;;24.80;99.90;;;;;;5028309;28;20468;-79
2022/08/15 00:34:12;;;;;;;10.23;9.20;;;24.70;99.90;;;;;;5025759;28;20102;-78
2022/08/15 00:36:38;;;;;;;13.07;9.50;;;24.60;99.90;;;;;;5023643;28;20132;-78
2022/08/15 00:39:05;;;;;;;12.55;9.63;;;24.50;99.90;;;;;;5030486;28;20045;-80
2022/08/15 00:41:40;;;;;;;10.48;9.45;;;24.50;99.90;;;;;;5031224;28;20033;-78
2022/08/15 00:44:16;;;;;;;10.40;9.38;;;24.50;99.90;;;;;;5025745;28;20578;-78
2022/08/15 00:46:45;;;;;;;10.85;9.32;;;24.40;99.90;;;;;;5028105;28;20391;-78
2022/08/15 00:49:12;;;;;;;9.98;8.80;;;24.40;99.90;;;;;;5025933;28;20073;-78
2022/08/15 00:51:52;;;;;;;10.55;8.43;;;24.40;99.90;;;;;;5030231;28;20424;-77
2022/08/15 00:54:29;;;;;;;9.73;8.00;;;24.40;99.90;;;;;;5028470;28;20053;-78
2022/08/15 00:57:23;;;;;;;;;;;24.40;99.90;;;;;;5029313;28;20659;-78
2022/08/15 01:00:08;;;;;;;9.60;8.60;;;24.40;99.90;;;;;;5018823;28;19956;-79
2022/08/15 01:02:34;;;;;;;9.80;8.80;;;24.40;99.90;;;;;;5024502;28;20580;-78
2022/08/15 01:05:02;;;;;;;9.10;8.20;;;24.40;99.90;;;;;;5025718;28;20057;-77
2022/08/15 01:07:28;;;;;;;9.45;8.45;;;24.40;99.90;;;;;;5022908;28;20061;-78
2022/08/15 01:09:54;;;;;;;10.50;8.55;;;24.40;99.90;;;;;;5027887;28;20510;-78
2022/08/15 01:12:24;;;;;;;13.15;8.63;;;24.50;99.90;;;;;;5024475;28;20044;-78
2022/08/15 01:14:55;;;;;;;9.48;8.57;;;24.50;99.90;;;;;;5029654;28;20116;-79
2022/08/15 01:17:22;;;;;;;11.60;8.80;;;24.50;99.90;;;;;;5024318;28;20091;-78
2022/08/15 01:19:56;;;;;;;11.02;8.07;;;24.50;99.90;;;;;;5029609;28;20045;-77
2022/08/15 01:22:37;;;;;;;10.40;8.82;;;24.50;99.90;;;;;;5027146;28;20045;-78
2022/08/15 01:25:28;;;;;;;14.55;8.20;;;24.60;99.90;;;;;;5030346;28;20102;-78
2022/08/15 01:28:05;;;;;;;8.35;7.60;;;24.60;99.90;;;;;;5020763;28;20506;-79
2022/08/15 01:30:38;;;;;;;8.82;7.93;;;24.60;99.90;;;;;;5028040;28;20493;-79
2022/08/15 01:33:03;;;;;;;8.98;6.93;;;24.60;99.90;;;;;;5027995;28;20549;-77
2022/08/15 01:35:30;;;;;;;8.30;7.50;;;24.60;99.90;;;;;;5024290;28;20080;-78
2022/08/15 01:37:59;;;;;;;7.90;7.20;;;24.60;99.90;;;;;;5025463;28;20048;-78
2022/08/15 01:40:45;;;;;;;8.23;7.28;;;24.50;99.90;;;;;;5027357;28;20041;-78
2022/08/15 01:43:12;;;;;;;9.45;6.88;;;24.50;99.90;;;;;;5018389;28;20056;-77
2022/08/15 01:45:39;;;;;;;;;;;24.40;99.90;;;;;;5026090;28;20050;-77
2022/08/15 01:48:20;;;;;;;7.32;6.50;;;24.40;99.90;;;;;;5028613;28;19921;-79
2022/08/15 01:50:53;;;;;;;8.82;7.10;;;24.40;99.90;;;;;;5025823;28;20057;-79
2022/08/15 01:53:33;;;;;;;8.70;7.50;;;24.40;99.90;;;;;;5025548;28;20056;-78
2022/08/15 01:56:24;;;;;;;7.72;6.93;;;24.40;99.90;;;;;;5029941;28;20508;-78
2022/08/15 01:58:50;;;;;;;9.13;7.63;;;24.40;99.90;;;;;;5024543;28;20052;-79
2022/08/15 02:01:19;;;;;;;9.23;7.18;;;24.40;99.90;;;;;;5023761;28;20033;-78
2022/08/15 02:03:48;;;;;;;8.07;7.18;;;24.40;99.90;;;;;;5023301;28;20053;-78
2022/08/15 02:06:24;;;;;;;7.80;7.00;;;24.30;99.90;;;;;;5028268;28;20570;-79
2022/08/15 02:08:52;;;;;;;8.48;7.57;;;24.30;99.90;;;;;;5024390;28;20068;-77
2022/08/15 02:11:26;;;;;;;8.10;7.18;;;24.30;99.90;;;;;;5028049;28;20072;-79
2022/08/15 02:13:54;;;;;;;8.18;7.05;;;24.20;99.90;;;;;;5028492;28;20052;-79
2022/08/15 02:16:21;;;;;;;9.15;7.28;;;24.20;99.90;;;;;;5025814;28;20036;-80
2022/08/15 02:18:47;;;;;;;8.23;6.97;;;24.20;99.90;;;;;;5026877;28;20041;-78
2022/08/15 02:21:13;;;;;;;8.77;6.33;;;24.10;99.90;;;;;;5024057;28;20045;-79
2022/08/15 02:23:40;;;;;;;9.63;7.47;;;24.10;99.90;;;;;;5028807;28;20448;-80
2022/08/15 02:26:08;;;;;;;9.45;7.32;;;24.00;99.90;;;;;;5028299;28;20048;-78
2022/08/15 02:28:34;;;;;;;8.43;6.97;;;24.00;99.90;;;;;;5023736;28;20049;-78
2022/08/15 02:31:01;;;;;;;7.93;6.90;;;24.00;99.90;;;;;;5028383;28;20128;-78
2022/08/15 02:33:27;;;;;;;9.45;7.03;;;23.90;99.90;;;;;;5028044;28;20045;-77
2022/08/15 02:35:54;;;;;;;8.95;7.32;;;23.80;99.90;;;;;;5027236;28;20041;-80
2022/08/15 02:38:20;;;;;;;7.65;6.95;;;23.80;99.90;;;;;;5024901;28;20041;-78
2022/08/15 02:40:48;;;;;;;8.57;7.25;;;23.70;99.90;;;;;;5013346;28;20045;-79
2022/08/15 02:43:16;;;;;;;7.85;7.05;;;23.60;99.90;;;;;;5025096;28;20053;-79
2022/08/15 02:45:47;;;;;;;8.02;7.22;;;23.50;99.90;;;;;;5027422;28;20041;-78
2022/08/15 02:48:14;;;;;;;8.20;7.40;;;23.40;99.90;;;;;;5027784;28;20045;-78
2022/08/15 02:50:41;;;;;;;10.15;7.57;;;23.30;99.90;;;;;;5026517;28;20053;-78
2022/08/15 02:53:14;;;;;;;9.75;7.35;;;23.20;99.90;;;;;;5026079;28;20092;-79
2022/08/15 02:55:43;;;;;;;8.02;7.20;;;23.20;99.90;;;;;;5025621;28;20045;-78
2022/08/15 02:58:11;;;;;;;8.60;7.57;;;23.10;99.90;;;;;;5021961;28;20124;-79
2022/08/15 03:00:37;;;;;;;11.93;8.15;;;23.00;99.90;;;;;;5025638;28;20725;-78
2022/08/15 03:03:08;;;;;;;8.10;7.32;;;22.90;99.90;;;;;;5024402;28;20076;-79
2022/08/15 03:05:37;;;;;;;9.07;7.32;;;22.80;99.90;;;;;;5027019;28;20088;-78
2022/08/15 03:08:04;;;;;;;8.13;7.32;;;22.70;99.90;;;;;;5026802;28;20112;-77
2022/08/15 03:10:30;;;;;;;8.88;8.00;;;22.70;99.90;;;;;;5026333;28;20037;-77
2022/08/15 03:13:08;;;;;;;9.23;8.15;;;22.60;99.90;;;;;;5022560;28;20046;-77
2022/08/15 03:15:47;;;;;;;8.52;7.72;;;22.60;99.90;;;;;;5019713;28;20054;-78
2022/08/15 03:18:13;;;;;;;8.90;8.00;;;22.50;99.90;;;;;;5022748;28;20493;-77
2022/08/15 03:20:40;;;;;;;10.07;8.57;;;22.50;99.90;;;;;;5026073;28;20127;-77
2022/08/15 03:23:07;;;;;;;11.02;9.20;;;22.50;99.90;;;;;;5025779;28;20042;-78
2022/08/15 03:25:40;;;;;;;17.30;9.73;;;22.60;99.90;;;;;;5023573;28;20128;-80
2022/08/15 03:28:07;;;;;;;11.40;10.20;;;22.60;99.90;;;;;;5024609;28;20056;-78
2022/08/15 03:30:33;;;;;;;11.57;10.40;;;22.70;99.90;;;;;;5033388;28;20045;-77
2022/08/15 03:32:59;;;;;;;11.43;9.45;;;22.70;99.90;;;;;;5032828;28;20174;-78
2022/08/15 03:35:28;;;;;;;10.65;9.55;;;22.70;99.90;;;;;;5033664;28;20052;-78
2022/08/15 03:37:55;;;;;;;12.77;9.90;;;22.70;99.90;;;;;;5029622;28;20497;-78
2022/08/15 03:40:21;;;;;;;10.50;9.38;;;22.70;99.90;;;;;;5031236;28;20054;-78
2022/08/15 03:43:02;;;;;;;11.93;10.65;;;22.70;99.90;;;;;;5031190;28;20048;-79
2022/08/15 03:45:28;;;;;;;12.93;10.50;;;22.70;99.90;;;;;;5027903;28;20045;-77
2022/08/15 03:47:54;;;;;;;12.20;10.90;;;22.70;99.90;;;;;;5034806;28;20037;-79
2022/08/15 03:50:21;;;;;;;12.50;11.20;;;22.70;99.90;;;;;;5033541;28;20038;-77
2022/08/15 03:52:58;;;;;;;13.10;11.20;;;22.70;99.90;;;;;;5033042;28;20119;-77
2022/08/15 03:55:27;;;;;;;12.80;11.50;;;22.70;99.90;;;;;;5033502;28;20315;-79
2022/08/15 03:57:53;;;;;;;13.48;11.85;;;22.60;99.90;;;;;;5029997;28;20544;-79
2022/08/15 04:00:23;;;;;;;13.43;11.77;;;22.60;99.90;;;;;;5033518;28;20045;-80
2022/08/15 04:02:49;;;;;;;13.23;11.85;;;22.60;99.90;;;;;;5031415;28;20484;-78
2022/08/15 04:05:15;;;;;;;13.40;12.05;;;22.50;99.90;;;;;;5030040;28;20060;-76
2022/08/15 04:07:41;;;;;;;14.10;12.70;;;22.50;99.90;;;;;;5024863;28;20045;-78
2022/08/15 04:10:10;;;;;;;13.93;12.63;;;22.50;99.90;;;;;;5029413;28;20060;-78
2022/08/15 04:12:39;;;;;;;13.45;12.15;;;22.50;99.90;;;;;;5030762;28;20708;-78
2022/08/15 04:15:08;;;;;;;13.18;11.85;;;22.50;99.90;;;;;;5029911;28;20053;-78
2022/08/15 04:17:34;;;;;;;14.13;12.73;;;22.50;99.90;;;;;;5033271;28;20502;-78
2022/08/15 04:20:00;;;;;;;13.35;11.95;;;22.50;99.90;;;;;;5033739;28;20045;-78
2022/08/15 04:22:34;;;;;;;14.40;12.97;;;22.50;99.90;;;;;;5031603;28;20424;-78
2022/08/15 04:25:31;;;;;;;13.85;12.50;;;22.50;99.90;;;;;;5031282;28;20406;-78
2022/08/15 04:28:04;;;;;;;14.00;12.70;;;22.50;99.90;;;;;;5026264;28;20130;-79
2022/08/15 04:30:42;;;;;;;14.32;12.82;;;22.50;99.90;;;;;;5033611;28;20052;-79
2022/08/15 04:33:24;;;;;;;;;;;22.60;99.90;;;;;;5023301;28;20129;-79
2022/08/15 04:35:56;;;;;;;14.98;13.57;;;22.50;99.90;;;;;;5032921;28;20082;-78
2022/08/15 04:38:22;;;;;;;14.82;13.32;;;22.50;99.90;;;;;;5031521;28;20038;-78
2022/08/15 04:40:48;;;;;;;14.23;12.82;;;22.50;99.90;;;;;;5023046;28;20378;-78
2022/08/15 04:43:17;;;;;;;14.55;12.98;;;22.50;99.90;;;;;;5030933;28;20069;-78
2022/08/15 04:45:43;;;;;;;13.50;12.20;;;22.50;99.90;;;;;;5026234;28;20113;-79
2022/08/15 04:48:14;;;;;;;14.57;13.18;;;22.60;99.90;;;;;;5027268;28;20121;-79
2022/08/15 04:50:40;;;;;;;14.20;12.77;;;22.60;99.90;;;;;;5026103;28;20049;-78
2022/08/15 04:53:07;;;;;;;13.60;12.15;;;22.60;99.90;;;;;;5029184;28;21968;-78
2022/08/15 04:55:35;;;;;;;14.70;12.30;;;22.60;99.90;;;;;;5030626;28;20076;-78
2022/08/15 04:58:02;;;;;;;13.73;12.43;;;22.60;99.90;;;;;;5026976;28;20556;-78
2022/08/15 05:00:31;;;;;;;13.73;12.43;;;22.60;99.90;;;;;;5028210;28;20034;-78
2022/08/15 05:03:01;;;;;;;13.57;12.18;;;22.70;99.90;;;;;;5028619;28;20098;-80
2022/08/15 05:05:27;;;;;;;12.75;11.43;;;22.70;99.90;;;;;;5029970;28;20088;-78
2022/08/15 05:07:53;;;;;;;15.02;11.60;;;22.80;99.90;;;;;;5027524;28;20045;-78
2022/08/15 05:10:18;;;;;;;12.93;11.60;;;22.80;99.90;;;;;;5027726;28;20362;-79
2022/08/15 05:12:44;;;;;;;12.25;11.15;;;22.80;99.90;;;;;;5029867;28;20042;-78
2022/08/15 05:15:11;;;;;;;12.48;11.32;;;22.90;99.90;;;;;;5030863;28;20041;-78
2022/08/15 05:17:37;;;;;;;13.43;11.77;;;22.90;99.90;;;;;;5025845;28;20052;-77
2022/08/15 05:20:04;;;;;;;12.25;11.00;;;22.90;99.90;;;;;;5028461;28;20049;-80
2022/08/15 05:22:30;;;;;;;12.77;11.65;;;22.90;99.90;;;;;;5030484;28;20052;-79
2022/08/15 05:24:57;;;;;;;14.10;12.52;;;23.00;99.90;;;;;;5022997;28;20128;-79
2022/08/15 05:27:22;;;;;;;13.50;12.13;;;23.00;99.90;;;;;;5028994;28;20498;-79
2022/08/15 05:29:49;;;;;;;12.77;11.48;;;23.00;99.90;;;;;;5028637;28;20140;-79
2022/08/15 05:32:15;;;;;;;12.80;11.50;;;23.00;99.90;;;;;;5028412;28;20041;-78
2022/08/15 05:34:40;;;;;;;12.75;11.48;;;23.10;99.90;;;;;;5026843;28;20049;-77
2022/08/15 05:37:06;;;;;;;12.02;10.93;;;23.10;99.90;;;;;;5025337;28;20047;-75
2022/08/15 05:39:33;;;;;;;12.80;11.60;;;23.10;99.90;;;;;;5018401;28;20041;-76
2022/08/15 05:42:05;;;;;;;13.60;12.27;;;23.10;99.90;;;;;;5026194;28;20858;-81
2022/08/15 05:44:54;;;;;;;13.63;12.20;;;23.10;99.90;;;;;;5026758;28;20099;-79
2022/08/15 05:47:43;;;;;;;13.45;12.07;;;23.10;99.90;;;;;;5013457;28;20868;-81
2022/08/15 05:50:17;;;;;;;12.70;11.50;;;23.20;99.90;;;;;;5024222;28;20053;-79
2022/08/15 05:53:06;;;;;;;13.38;11.93;;;23.20;99.90;;;;;;5027868;28;20046;-81
2022/08/15 05:55:48;;;;;;;13.00;11.90;;;23.20;99.90;;;;;;5026935;28;20045;-80
2022/08/15 05:58:27;;;;;;;;;;;23.20;99.90;;;;;;5027006;28;20053;-78
2022/08/15 06:01:12;;;;;;;12.68;11.57;;;23.20;99.90;;;;;;5025739;28;19921;-81
2022/08/15 06:03:46;;;;;;;12.35;11.25;;;23.30;99.90;;;;;;5020682;28;20065;-81
2022/08/15 06:06:21;;;;;;;12.98;11.70;;;23.30;99.90;;;;;;5022228;28;20049;-81
2022/08/15 06:08:59;;;;;;;12.45;11.35;;;23.40;99.90;;;;;;5025701;28;20489;-81
2022/08/15 06:11:34;;;;;;;13.98;11.30;;;23.40;99.90;;;;;;5025862;28;20562;-81
2022/08/15 06:14:27;;;;;;;14.52;11.90;;;23.50;99.90;;;;;;5024062;28;20056;-81
2022/08/15 06:16:56;;;;;;;14.32;12.15;;;23.50;99.90;;;;;;5017889;28;20045;-82
2022/08/15 06:19:37;;;;;;;13.45;11.70;;;23.50;99.90;;;;;;5026364;28;20691;-81
2022/08/15 06:22:47;;;;;;;12.90;11.63;;;23.50;99.90;;;;;;5025653;28;20504;-81
2022/08/15 06:25:28;;;;;;;12.70;11.45;;;23.60;99.90;;;;;;4994510;28;20066;-83
2022/08/15 06:27:54;;;;;;;12.93;11.77;;;23.60;99.90;;;;;;5021545;28;20128;-80
2022/08/15 06:30:30;;;;;;;12.77;11.57;;;23.60;99.90;;;;;;5018792;28;20500;-83
2022/08/15 06:33:25;;;;;;;13.25;11.98;;;23.60;99.90;;;;;;5020783;28;20152;-85
2022/08/15 06:36:10;;;;;;;13.55;12.18;;;23.60;99.90;;;;;;5026444;28;20128;-81
2022/08/15 06:39:12;;;;;;;13.90;11.98;;;23.60;99.90;;;;;;5018490;28;20041;-80
2022/08/15 06:41:58;;;;;;;13.93;12.25;;;23.60;99.90;;;;;;5037894;28;20053;-81
2022/08/15 06:44:28;;;;;;;12.93;11.60;;;23.70;99.90;;;;;;5026965;28;20052;-77
2022/08/15 06:47:03;;;;;;;12.68;11.32;;;23.80;99.90;;;;;;5021342;28;20550;-78
2022/08/15 06:49:33;;;;;;;12.50;10.95;;;23.80;99.90;;;;;;5015900;28;20049;-73
2022/08/15 06:51:59;;;;;;;13.77;11.13;;;23.80;99.90;;;;;;5022996;28;20132;-78
2022/08/15 06:54:27;;;;;;;13.60;11.13;;;23.90;99.90;;;;;;5023689;28;20089;-75
2022/08/15 06:57:13;;;;;;;13.15;11.75;;;23.90;99.90;;;;;;5023747;28;20076;-81
2022/08/15 06:59:51;;;;;;;14.77;11.00;;;24.00;99.90;;;;;;5030438;28;20136;-79
2022/08/15 07:02:30;;;;;;;11.82;10.70;;;24.10;99.90;;;;;;5026388;28;20124;-79
2022/08/15 07:05:13;;;;;;;12.35;10.35;;;24.20;99.90;;;;;;5025644;28;20048;-80
2022/08/15 07:07:55;;;;;;;11.65;10.45;;;24.30;99.90;;;;;;5028267;28;20374;-82
2022/08/15 07:10:27;;;;;;;12.07;10.20;;;24.30;99.90;;;;;;5025140;28;20045;-81
2022/08/15 07:13:04;;;;;;;14.93;11.02;;;24.40;99.90;;;;;;5028888;28;20049;-79
2022/08/15 07:15:46;;;;;;;;;;;24.50;99.90;;;;;;5020544;28;20037;-80
2022/08/15 07:18:41;;;;;;;11.65;10.45;;;24.50;99.90;;;;;;5021845;28;20372;-74
2022/08/15 07:21:10;;;;;;;12.32;10.45;;;24.60;99.90;;;;;;5014071;28;20196;-74
2022/08/15 07:24:10;;;;;;;15.43;10.13;;;24.60;99.90;;;;;;5027588;28;20084;-74
2022/08/15 07:26:41;;;;;;;10.88;9.77;;;24.60;99.90;;;;;;4984120;28;20045;-72
2022/08/15 07:29:12;;;;;;;15.85;10.20;;;24.80;99.90;;;;;;5026767;28;20136;-73
2022/08/15 07:31:38;;;;;;;11.70;10.45;;;24.80;99.90;;;;;;5025378;28;20037;-72
2022/08/15 07:34:16;;;;;;;12.88;11.30;;;24.90;99.90;;;;;;5023699;28;20403;-73
2022/08/15 07:36:54;;;;;;;21.48;13.45;;;24.90;99.90;;;;;;5016865;28;20478;-73
2022/08/15 07:39:36;;;;;;;19.45;12.35;;;25.00;99.90;;;;;;5024957;28;20053;-74
2022/08/15 07:42:16;;;;;;;15.18;10.85;;;25.00;99.90;;;;;;5029095;28;20201;-73
2022/08/15 07:44:55;;;;;;;12.38;11.05;;;25.10;99.90;;;;;;5024608;28;20045;-75
2022/08/15 07:47:27;;;;;;;13.10;11.23;;;25.10;99.90;;;;;;5027482;28;20065;-76
2022/08/15 07:50:06;;;;;;;13.70;11.13;;;25.20;99.90;;;;;;5015874;28;20369;-80
2022/08/15 07:52:33;;;;;;;12.27;10.98;;;25.20;99.90;;;;;;5027354;28;20492;-78
2022/08/15 07:55:17;;;;;;;15.30;11.07;;;25.30;99.90;;;;;;5026262;28;20042;-74
2022/08/15 07:57:59;;;;;;;12.48;10.30;;;25.40;99.90;;;;;;5008471;28;20056;-74
2022/08/15 08:00:27;;;;;;;14.20;11.30;;;25.50;99.90;;;;;;5015760;28;20042;-75
2022/08/15 08:02:56;;;;;;;11.82;10.57;;;25.50;99.90;;;;;;5024150;28;20099;-70
2022/08/15 08:05:27;;;;;;;11.23;10.13;;;25.50;99.90;;;;;;5023448;28;20041;-72
2022/08/15 08:07:54;;;;;;;46.38;24.90;;;25.70;99.90;;;;;;5025012;28;20072;-73
2022/08/15 08:10:32;;;;;;;;;;;25.80;99.90;;;;;;5027235;28;20056;-72
2022/08/15 08:13:03;;;;;;;19.52;12.52;;;25.80;99.90;;;;;;5028048;28;19986;-73
2022/08/15 08:15:48;;;;;;;17.02;11.65;;;25.90;99.90;;;;;;5030952;28;20041;-73
2022/08/15 08:18:55;;;;;;;15.20;11.27;;;26.00;99.90;;;;;;5030100;28;20045;-72
2022/08/15 08:21:28;;;;;;;11.60;9.75;;;26.10;99.90;;;;;;5012716;28;20057;-73
2022/08/15 08:24:00;;;;;;;11.93;10.35;;;26.10;99.90;;;;;;5023871;28;20081;-75
2022/08/15 08:26:40;;;;;;;12.00;10.70;;;26.20;99.90;;;;;;5027620;28;20545;-75
2022/08/15 08:29:28;;;;;;;11.90;10.70;;;26.10;99.90;;;;;;5029233;28;20037;-73
2022/08/15 08:32:04;;;;;;;11.05;10.05;;;26.10;99.90;;;;;;5028927;28;20056;-69
2022/08/15 08:34:42;;;;;;;12.43;11.25;;;26.10;99.90;;;;;;5030904;28;20107;-73
2022/08/15 08:37:14;;;;;;;12.13;10.93;;;26.00;99.90;;;;;;5026056;28;20056;-74
2022/08/15 08:39:52;;;;;;;14.55;12.35;;;26.00;99.90;;;;;;5026122;28;20081;-75
2022/08/15 08:42:45;;;;;;;12.38;11.07;;;26.00;99.90;;;;;;5029809;28;20057;-73
2022/08/15 08:45:48;;;;;;;12.48;11.18;;;26.10;99.90;;;;;;5027046;28;20049;-75
2022/08/15 08:48:40;;;;;;;13.45;11.07;;;26.10;99.90;;;;;;4997009;28;20058;-75
2022/08/15 08:51:09;;;;;;;14.45;11.02;;;26.20;99.90;;;;;;5028854;28;20508;-75
2022/08/15 08:53:56;;;;;;;16.33;12.10;;;26.20;99.90;;;;;;5025078;28;20045;-75
2022/08/15 08:56:27;;;;;;;11.45;10.35;;;26.20;99.90;;;;;;5030282;28;20068;-75
2022/08/15 08:59:35;;;;;;;18.42;11.35;;;26.20;99.90;;;;;;5027426;28;20042;-75
2022/08/15 09:02:17;;;;;;;14.93;13.20;;;26.40;99.90;;;;;;4987859;28;20108;-72
2022/08/15 09:04:50;;;;;;;13.68;12.27;;;26.40;99.90;;;;;;5028435;28;20096;-73
2022/08/15 09:07:22;;;;;;;17.10;12.52;;;26.60;99.30;;;;;;5030283;28;20083;-73
2022/08/15 09:09:51;;;;;;;15.75;12.98;;;26.60;98.70;;;;;;5027412;28;20053;-73
2022/08/15 09:15:24;;;;;;;22.10;15.10;;;26.60;98.40;;;;;;5026269;28;20057;-74
2022/08/15 09:17:54;;;;;;;15.77;14.27;;;26.50;98.60;;;;;;5029424;28;20429;-72
2022/08/15 09:20:25;;;;;;;16.20;14.70;;;26.50;99.40;;;;;;5026414;28;20049;-71
2022/08/15 09:22:51;;;;;;;16.45;14.93;;;26.50;99.40;;;;;;5017574;28;20622;-68
2022/08/15 09:25:18;;;;;;;15.93;14.35;;;26.60;99.90;;;;;;5025553;28;20045;-72
2022/08/15 09:28:39;;;;;;;17.77;16.13;;;26.70;99.90;;;;;;5025187;28;20052;-73
2022/08/15 09:31:11;;;;;;;17.88;16.20;;;26.80;99.90;;;;;;4985228;28;20057;-72
2022/08/15 09:33:37;;;;;;;17.52;15.82;;;26.80;99.90;;;;;;5021730;28;20077;-73
2022/08/15 09:36:02;;;;;;;19.02;17.33;;;26.80;99.90;;;;;;5025027;28;20523;-72
2022/08/15 09:38:47;;;;;;;18.48;16.70;;;26.70;99.90;;;;;;5019919;28;20053;-72
2022/08/15 09:41:22;;;;;;;18.40;16.58;;;26.60;99.90;;;;;;5023953;28;20508;-74
2022/08/15 09:44:19;;;;;;;20.40;17.83;;;26.50;99.90;;;;;;5021339;28;20049;-73
2022/08/15 09:47:00;;;;;;;19.73;17.55;;;26.40;99.90;;;;;;5023309;28;20049;-73
2022/08/15 09:49:48;;;;;;;19.42;17.50;;;26.30;99.90;;;;;;5025419;28;20041;-72
2022/08/15 09:52:30;;;;;;;18.63;16.73;;;26.30;99.90;;;;;;5026387;28;20133;-72
2022/08/15 09:55:20;;;;;;;17.80;16.15;;;26.20;99.90;;;;;;5017720;28;20064;-71
2022/08/15 09:57:56;;;;;;;17.55;15.75;;;26.20;99.90;;;;;;5025272;28;20092;-69
2022/08/15 10:00:39;;;;;;;18.63;16.52;;;26.20;99.90;;;;;;5024091;28;20057;-74
2022/08/15 10:03:45;;;;;;;18.77;16.73;;;26.20;99.90;;;;;;5023926;28;20418;-72
2022/08/15 10:06:25;;;;;;;18.95;17.05;;;26.30;99.90;;;;;;5020346;28;20085;-74
2022/08/15 10:08:53;;;;;;;21.98;18.90;;;26.30;99.90;;;;;;5019185;28;20049;-72
2022/08/15 10:11:33;;;;;;;21.38;19.10;;;26.30;99.90;;;;;;5023694;28;20741;-76
2022/08/15 10:14:07;;;;;;;21.35;19.15;;;26.40;99.90;;;;;;5024872;28;20037;-74
2022/08/15 10:16:40;;;;;;;22.63;18.08;;;26.40;99.90;;;;;;5029109;28;20058;-73
2022/08/15 10:19:29;;;;;;;21.65;19.70;;;26.50;99.90;;;;;;5027290;28;20469;-73
2022/08/15 10:21:56;;;;;;;21.90;20.00;;;26.40;99.90;;;;;;5027290;28;20072;-74
2022/08/15 10:24:32;;;;;;;20.27;18.30;;;26.50;99.90;;;;;;5029085;28;20053;-73
2022/08/15 10:27:07;;;;;;;22.27;19.70;;;26.50;99.90;;;;;;5023135;28;20045;-73
2022/08/15 10:29:48;;;;;;;23.63;21.25;;;26.60;99.90;;;;;;5027548;28;20056;-72
2022/08/15 10:32:35;;;;;;;22.10;19.98;;;26.60;99.90;;;;;;5025571;28;20049;-75
2022/08/15 10:35:15;;;;;;;23.80;21.58;;;26.70;99.90;;;;;;5022667;28;20037;-73
2022/08/15 10:38:02;;;;;;;26.38;23.92;;;26.70;99.90;;;;;;5010268;28;20045;-71
2022/08/15 10:40:57;;;;;;;27.70;25.10;;;26.80;99.90;;;;;;5020826;28;20504;-77
2022/08/15 10:43:48;;;;;;;26.45;22.33;;;26.80;99.90;;;;;;5027611;28;20509;-74
2022/08/15 10:46:36;;;;;;;26.83;24.40;;;26.90;99.90;;;;;;5023507;28;20064;-73
2022/08/15 10:49:30;;;;;;;28.10;25.42;;;27.00;99.90;;;;;;5024129;28;20052;-73
2022/08/15 10:52:19;;;;;;;27.88;25.13;;;27.00;99.90;;;;;;5023447;28;20045;-75
2022/08/15 10:54:51;;;;;;;27.42;24.70;;;27.00;99.90;;;;;;5038746;28;20052;-75
2022/08/15 10:57:22;;;;;;;25.95;23.60;;;27.10;99.90;;;;;;5024970;28;20530;-75
2022/08/15 10:59:54;;;;;;;27.60;24.65;;;27.10;99.90;;;;;;5020827;28;20060;-75
2022/08/15 11:02:43;;;;;;;27.30;24.25;;;27.10;99.90;;;;;;5027953;28;20045;-75
2022/08/15 11:05:17;;;;;;;27.55;24.90;;;27.10;99.90;;;;;;5026164;28;20484;-75
2022/08/15 11:07:55;;;;;;;27.02;24.40;;;27.20;99.90;;;;;;5023294;28;20076;-76
2022/08/15 11:10:23;;;;;;;25.80;23.27;;;27.20;99.90;;;;;;5025777;28;20056;-75
2022/08/15 11:13:03;;;;;;;27.27;24.73;;;27.20;99.90;;;;;;5026682;28;20514;-75
2022/08/15 11:15:45;;;;;;;27.20;24.35;;;27.20;99.90;;;;;;5017441;28;20049;-73
2022/08/15 11:18:12;;;;;;;28.92;26.33;;;27.30;99.90;;;;;;5027554;28;20153;-74
2022/08/15 11:20:44;;;;;;;26.67;24.27;;;27.20;99.70;;;;;;5025413;28;20041;-75
2022/08/15 11:23:11;;;;;;;28.15;25.60;;;27.20;99.70;;;;;;5023281;28;20775;-75
2022/08/15 11:25:41;;;;;;;29.35;26.63;;;27.20;99.60;;;;;;5021314;28;20140;-76
2022/08/15 11:28:13;;;;;;;27.13;24.38;;;27.30;99.80;;;;;;5022762;28;20052;-72
2022/08/15 11:30:41;;;;;;;27.52;24.65;;;27.30;99.90;;;;;;5019743;28;20042;-73
2022/08/15 11:33:21;;;;;;;28.50;25.35;;;27.40;99.70;;;;;;5020142;28;20048;-75
2022/08/15 11:35:49;;;;;;;30.88;24.15;;;27.60;99.10;;;;;;5019672;28;20042;-73
2022/08/15 11:38:16;;;;;;;28.02;24.70;;;27.80;99.20;;;;;;5023790;28;20046;-73
2022/08/15 11:40:48;;;;;;;27.92;25.42;;;28.00;99.10;;;;;;5025283;28;20091;-75
2022/08/15 11:43:16;;;;;;;31.55;25.05;;;28.20;98.10;;;;;;5022117;28;20034;-74
2022/08/15 11:45:48;;;;;;;27.13;24.20;;;28.30;97.80;;;;;;5027191;28;20041;-76
2022/08/15 11:48:26;;;;;;;28.20;25.10;;;28.50;99.30;;;;;;5026622;28;20034;-75
2022/08/15 11:51:03;;;;;;;25.90;23.40;;;28.70;97.30;;;;;;5026801;28;20394;-71
2022/08/15 11:53:30;;;;;;;;;;;28.90;96.60;;;;;;5027938;28;20432;-72
2022/08/15 11:55:56;;;;;;;29.48;26.73;;;28.70;92.90;;;;;;5027774;28;20291;-72
2022/08/15 11:58:31;;;;;;;27.43;24.70;;;28.70;95.80;;;;;;5025770;28;20045;-73
2022/08/15 12:00:59;;;;;;;25.20;22.65;;;28.80;95.20;;;;;;5026134;28;20069;-73
2022/08/15 12:03:27;;;;;;;26.55;23.85;;;28.90;95.70;;;;;;5030161;28;20045;-77
2022/08/15 12:06:13;;;;;;;25.83;23.45;;;29.10;95.00;;;;;;5025762;28;20045;-73
2022/08/15 12:08:40;;;;;;;27.73;24.87;;;29.20;93.30;;;;;;5029729;28;20034;-74
2022/08/15 12:11:24;;;;;;;26.23;23.50;;;29.30;91.80;;;;;;5025735;28;20061;-74
2022/08/15 12:13:56;;;;;;;26.50;24.00;;;29.30;91.20;;;;;;5028674;28;20041;-74
2022/08/15 12:16:31;;;;;;;25.00;22.77;;;29.20;91.80;;;;;;5023997;28;20046;-75
2022/08/15 12:19:17;;;;;;;27.27;24.52;;;29.40;93.60;;;;;;5028373;28;20041;-74
2022/08/15 12:21:47;;;;;;;;;;;29.40;90.70;;;;;;5024071;28;20052;-71
2022/08/15 12:24:22;;;;;;;25.13;22.73;;;29.40;90.10;;;;;;5031379;28;19925;-74
2022/08/15 12:26:49;;;;;;;24.90;22.60;;;29.30;89.20;;;;;;5030333;28;20042;-74
2022/08/15 12:29:18;;;;;;;24.05;21.38;;;29.20;90.30;;;;;;5032386;28;20432;-73
2022/08/15 12:31:45;;;;;;;29.73;26.48;;;29.30;90.70;;;;;;5022343;28;20060;-73
2022/08/15 12:34:16;;;;;;;29.85;26.75;;;29.30;90.50;;;;;;5027966;28;20046;-73
2022/08/15 12:36:44;;;;;;;25.20;22.80;;;29.30;88.50;;;;;;5029589;28;20077;-72
2022/08/15 12:39:16;;;;;;;23.95;21.52;;;29.20;91.00;;;;;;5014920;28;20041;-71
2022/08/15 12:41:45;;;;;;;24.92;22.50;;;29.20;91.50;;;;;;5030450;28;20041;-72
2022/08/15 12:44:23;;;;;;;22.77;20.52;;;29.20;92.20;;;;;;5026217;28;20459;-74
2022/08/15 12:46:51;;;;;;;21.15;19.15;;;29.20;91.80;;;;;;5026155;28;20095;-73
2022/08/15 12:49:17;;;;;;;23.50;21.27;;;29.10;91.90;;;;;;5029682;28;20041;-71
2022/08/15 12:51:44;;;;;;;22.58;20.48;;;29.10;92.30;;;;;;5021795;28;20115;-71
2022/08/15 12:54:09;;;;;;;;;;;29.00;92.20;;;;;;5026011;28;20560;-73
2022/08/15 12:56:35;;;;;;;21.10;19.00;;;28.90;93.20;;;;;;5023263;28;19929;-73
2022/08/15 12:59:05;;;;;;;21.15;19.02;;;28.80;94.50;;;;;;5028140;28;20296;-73
2022/08/15 13:01:38;;;;;;;21.98;19.98;;;28.80;96.00;;;;;;5028336;28;20080;-73
2022/08/15 13:04:06;;;;;;;21.35;19.20;;;28.80;96.00;;;;;;5027160;28;20045;-74
2022/08/15 13:06:48;;;;;;;19.48;17.65;;;28.90;96.80;;;;;;5030683;28;20049;-73
2022/08/15 13:09:16;;;;;;;21.55;19.50;;;28.90;97.20;;;;;;5026721;28;20444;-74
2022/08/15 13:11:43;;;;;;;18.63;16.73;;;28.80;96.10;;;;;;5027903;28;20108;-73